sensor_id;sensor_type;location;lat;lon;timestamp;P1;durP1;ratioP1;P2;durP2;ratioP2
10031;SDS011;5056;44.272;19.892;2023-03-14T00:01:00;40.77;;;26.73;;
10031;SDS011;5056;44.272;19.892;2023-03-14T00:03:35;48.10;;;28.07;;
10031;SDS011;5056;44.272;19.892;2023-03-14T00:06:05;41.93;;;27.37;;
10031;SDS011;5056;44.272;19.892;2023-03-14T00:08:33;41.60;;;25.07;;
10031;SDS011;5056;44.272;19.892;2023-03-14T00:11:04;36.23;;;24.13;;
10031;SDS011;5056;44.272;19.892;2023-03-14T00:13:32;32.73;;;21.57;;
10031;SDS011;5056;44.272;19.892;2023-03-14T00:16:02;42.03;;;25.00;;
10031;SDS011;5056;44.272;19.892;2023-03-14T00:18:30;36.23;;;24.60;;
10031;SDS011;5056;44.272;19.892;2023-03-14T00:21:01;38.67;;;24.57;;
10031;SDS011;5056;44.272;19.892;2023-03-14T00:23:29;42.47;;;27.60;;
10031;SDS011;5056;44.272;19.892;2023-03-14T00:26:06;43.00;;;27.67;;
10031;SDS011;5056;44.272;19.892;2023-03-14T00:28:34;34.97;;;24.20;;
10031;SDS011;5056;44.272;19.892;2023-03-14T00:31:02;36.53;;;24.03;;
10031;SDS011;5056;44.272;19.892;2023-03-14T00:33:29;36.10;;;25.03;;
10031;SDS011;5056;44.272;19.892;2023-03-14T00:35:57;33.87;;;24.10;;
10031;SDS011;5056;44.272;19.892;2023-03-14T00:38:27;37.17;;;23.97;;
10031;SDS011;5056;44.272;19.892;2023-03-14T00:40:57;38.20;;;24.47;;
10031;SDS011;5056;44.272;19.892;2023-03-14T00:43:24;36.90;;;24.17;;
10031;SDS011;5056;44.272;19.892;2023-03-14T00:45:52;37.00;;;25.47;;
10031;SDS011;5056;44.272;19.892;2023-03-14T00:48:19;39.80;;;26.37;;
10031;SDS011;5056;44.272;19.892;2023-03-14T00:50:46;42.30;;;25.77;;
10031;SDS011;5056;44.272;19.892;2023-03-14T00:53:14;48.00;;;28.57;;
10031;SDS011;5056;44.272;19.892;2023-03-14T00:55:41;42.03;;;27.67;;
10031;SDS011;5056;44.272;19.892;2023-03-14T00:58:09;42.93;;;26.40;;
10031;SDS011;5056;44.272;19.892;2023-03-14T01:00:35;37.40;;;23.83;;
10031;SDS011;5056;44.272;19.892;2023-03-14T01:03:03;34.20;;;22.40;;
10031;SDS011;5056;44.272;19.892;2023-03-14T01:05:30;33.43;;;20.83;;
10031;SDS011;5056;44.272;19.892;2023-03-14T01:07:57;34.33;;;20.90;;
10031;SDS011;5056;44.272;19.892;2023-03-14T01:10:25;30.87;;;20.50;;
10031;SDS011;5056;44.272;19.892;2023-03-14T01:12:54;33.37;;;21.27;;
10031;SDS011;5056;44.272;19.892;2023-03-14T01:15:24;35.33;;;23.70;;
10031;SDS011;5056;44.272;19.892;2023-03-14T01:17:51;34.87;;;23.40;;
10031;SDS011;5056;44.272;19.892;2023-03-14T01:20:17;29.90;;;20.33;;
10031;SDS011;5056;44.272;19.892;2023-03-14T01:22:45;27.30;;;19.20;;
10031;SDS011;5056;44.272;19.892;2023-03-14T01:25:15;31.37;;;20.60;;
10031;SDS011;5056;44.272;19.892;2023-03-14T01:27:46;31.60;;;19.60;;
10031;SDS011;5056;44.272;19.892;2023-03-14T01:30:13;31.73;;;20.67;;
10031;SDS011;5056;44.272;19.892;2023-03-14T01:32:46;33.40;;;20.90;;
10031;SDS011;5056;44.272;19.892;2023-03-14T01:35:13;24.10;;;17.77;;
10031;SDS011;5056;44.272;19.892;2023-03-14T01:37:40;23.67;;;17.17;;
10031;SDS011;5056;44.272;19.892;2023-03-14T01:40:09;25.73;;;17.50;;
10031;SDS011;5056;44.272;19.892;2023-03-14T01:42:43;26.83;;;18.93;;
10031;SDS011;5056;44.272;19.892;2023-03-14T01:48:21;26.03;;;17.93;;
10031;SDS011;5056;44.272;19.892;2023-03-14T01:50:49;27.90;;;19.53;;
10031;SDS011;5056;44.272;19.892;2023-03-14T01:53:16;28.70;;;20.13;;
10031;SDS011;5056;44.272;19.892;2023-03-14T01:55:46;29.13;;;20.03;;
10031;SDS011;5056;44.272;19.892;2023-03-14T01:58:21;23.77;;;17.77;;
10031;SDS011;5056;44.272;19.892;2023-03-14T02:00:47;25.47;;;18.43;;
10031;SDS011;5056;44.272;19.892;2023-03-14T02:03:18;23.03;;;16.60;;
10031;SDS011;5056;44.272;19.892;2023-03-14T02:05:48;24.40;;;16.03;;
10031;SDS011;5056;44.272;19.892;2023-03-14T02:08:16;22.33;;;15.03;;
10031;SDS011;5056;44.272;19.892;2023-03-14T02:10:45;21.20;;;15.13;;
10031;SDS011;5056;44.272;19.892;2023-03-14T02:13:13;24.13;;;14.87;;
10031;SDS011;5056;44.272;19.892;2023-03-14T02:15:43;23.13;;;16.67;;
10031;SDS011;5056;44.272;19.892;2023-03-14T02:18:09;30.23;;;18.23;;
10031;SDS011;5056;44.272;19.892;2023-03-14T02:20:38;25.97;;;17.67;;
10031;SDS011;5056;44.272;19.892;2023-03-14T02:23:08;30.20;;;20.83;;
10031;SDS011;5056;44.272;19.892;2023-03-14T02:25:38;27.47;;;20.17;;
10031;SDS011;5056;44.272;19.892;2023-03-14T02:28:08;25.43;;;17.80;;
10031;SDS011;5056;44.272;19.892;2023-03-14T02:30:35;25.00;;;18.00;;
10031;SDS011;5056;44.272;19.892;2023-03-14T02:33:04;27.73;;;17.47;;
10031;SDS011;5056;44.272;19.892;2023-03-14T02:35:35;25.07;;;16.90;;
10031;SDS011;5056;44.272;19.892;2023-03-14T02:38:05;23.30;;;16.67;;
10031;SDS011;5056;44.272;19.892;2023-03-14T02:40:37;20.87;;;15.10;;
10031;SDS011;5056;44.272;19.892;2023-03-14T02:43:04;21.20;;;15.70;;
10031;SDS011;5056;44.272;19.892;2023-03-14T02:45:35;23.97;;;16.50;;
10031;SDS011;5056;44.272;19.892;2023-03-14T02:48:08;25.77;;;17.93;;
10031;SDS011;5056;44.272;19.892;2023-03-14T02:50:40;29.67;;;19.67;;
10031;SDS011;5056;44.272;19.892;2023-03-14T02:53:09;28.20;;;19.20;;
10031;SDS011;5056;44.272;19.892;2023-03-14T02:55:35;26.93;;;18.83;;
10031;SDS011;5056;44.272;19.892;2023-03-14T02:58:02;22.90;;;16.33;;
10031;SDS011;5056;44.272;19.892;2023-03-14T03:00:30;35.13;;;24.67;;
10031;SDS011;5056;44.272;19.892;2023-03-14T03:03:00;36.33;;;25.40;;
10031;SDS011;5056;44.272;19.892;2023-03-14T03:05:27;30.67;;;21.93;;
10031;SDS011;5056;44.272;19.892;2023-03-14T03:07:53;45.30;;;33.37;;
10031;SDS011;5056;44.272;19.892;2023-03-14T03:10:22;46.90;;;34.97;;
10031;SDS011;5056;44.272;19.892;2023-03-14T03:12:49;36.83;;;24.63;;
10031;SDS011;5056;44.272;19.892;2023-03-14T03:15:16;28.50;;;18.97;;
10031;SDS011;5056;44.272;19.892;2023-03-14T03:17:44;28.27;;;17.33;;
10031;SDS011;5056;44.272;19.892;2023-03-14T03:20:13;27.47;;;18.23;;
10031;SDS011;5056;44.272;19.892;2023-03-14T03:22:40;28.87;;;17.80;;
10031;SDS011;5056;44.272;19.892;2023-03-14T03:25:09;22.80;;;15.73;;
10031;SDS011;5056;44.272;19.892;2023-03-14T03:27:36;24.40;;;17.83;;
10031;SDS011;5056;44.272;19.892;2023-03-14T03:30:04;20.10;;;15.37;;
10031;SDS011;5056;44.272;19.892;2023-03-14T03:32:33;20.10;;;15.63;;
10031;SDS011;5056;44.272;19.892;2023-03-14T03:35:02;18.67;;;14.57;;
10031;SDS011;5056;44.272;19.892;2023-03-14T03:37:31;18.87;;;13.57;;
10031;SDS011;5056;44.272;19.892;2023-03-14T03:39:58;18.30;;;12.60;;
10031;SDS011;5056;44.272;19.892;2023-03-14T03:42:26;19.07;;;13.10;;
10031;SDS011;5056;44.272;19.892;2023-03-14T03:44:53;19.87;;;13.40;;
10031;SDS011;5056;44.272;19.892;2023-03-14T03:47:20;25.13;;;16.03;;
10031;SDS011;5056;44.272;19.892;2023-03-14T03:49:47;27.33;;;17.67;;
10031;SDS011;5056;44.272;19.892;2023-03-14T03:52:14;26.33;;;18.13;;
10031;SDS011;5056;44.272;19.892;2023-03-14T03:54:42;28.33;;;18.13;;
10031;SDS011;5056;44.272;19.892;2023-03-14T03:57:09;29.17;;;17.93;;
10031;SDS011;5056;44.272;19.892;2023-03-14T03:59:35;27.00;;;17.70;;
10031;SDS011;5056;44.272;19.892;2023-03-14T04:02:05;27.77;;;16.10;;
10031;SDS011;5056;44.272;19.892;2023-03-14T04:04:32;27.10;;;16.63;;
10031;SDS011;5056;44.272;19.892;2023-03-14T04:06:59;25.17;;;15.87;;
10031;SDS011;5056;44.272;19.892;2023-03-14T04:09:26;28.93;;;17.23;;
10031;SDS011;5056;44.272;19.892;2023-03-14T04:11:55;27.23;;;16.17;;
10031;SDS011;5056;44.272;19.892;2023-03-14T04:14:23;24.40;;;15.87;;
10031;SDS011;5056;44.272;19.892;2023-03-14T04:16:50;22.23;;;14.03;;
10031;SDS011;5056;44.272;19.892;2023-03-14T04:19:18;17.97;;;13.17;;
10031;SDS011;5056;44.272;19.892;2023-03-14T04:21:44;16.10;;;11.83;;
10031;SDS011;5056;44.272;19.892;2023-03-14T04:24:12;20.00;;;11.73;;
10031;SDS011;5056;44.272;19.892;2023-03-14T04:26:39;17.40;;;12.00;;
10031;SDS011;5056;44.272;19.892;2023-03-14T04:29:07;19.40;;;13.80;;
10031;SDS011;5056;44.272;19.892;2023-03-14T04:31:34;26.13;;;17.10;;
10031;SDS011;5056;44.272;19.892;2023-03-14T04:34:01;29.93;;;18.03;;
10031;SDS011;5056;44.272;19.892;2023-03-14T04:36:28;25.70;;;16.90;;
10031;SDS011;5056;44.272;19.892;2023-03-14T04:38:55;24.67;;;15.87;;
10031;SDS011;5056;44.272;19.892;2023-03-14T04:41:24;26.97;;;16.17;;
10031;SDS011;5056;44.272;19.892;2023-03-14T04:43:51;24.53;;;15.23;;
10031;SDS011;5056;44.272;19.892;2023-03-14T04:46:19;23.50;;;14.80;;
10031;SDS011;5056;44.272;19.892;2023-03-14T04:48:46;26.87;;;15.77;;
10031;SDS011;5056;44.272;19.892;2023-03-14T04:51:14;21.47;;;13.27;;
10031;SDS011;5056;44.272;19.892;2023-03-14T04:53:50;15.53;;;11.00;;
10031;SDS011;5056;44.272;19.892;2023-03-14T04:56:17;17.33;;;12.37;;
10031;SDS011;5056;44.272;19.892;2023-03-14T04:58:44;16.27;;;11.37;;
10031;SDS011;5056;44.272;19.892;2023-03-14T05:01:11;18.30;;;12.93;;
10031;SDS011;5056;44.272;19.892;2023-03-14T05:03:41;15.80;;;12.23;;
10031;SDS011;5056;44.272;19.892;2023-03-14T05:06:07;19.63;;;13.83;;
10031;SDS011;5056;44.272;19.892;2023-03-14T05:08:34;18.00;;;12.77;;
10031;SDS011;5056;44.272;19.892;2023-03-14T05:11:15;15.97;;;12.50;;
10031;SDS011;5056;44.272;19.892;2023-03-14T05:13:45;20.07;;;14.17;;
10031;SDS011;5056;44.272;19.892;2023-03-14T05:16:12;20.37;;;13.73;;
10031;SDS011;5056;44.272;19.892;2023-03-14T05:18:45;21.30;;;13.80;;
10031;SDS011;5056;44.272;19.892;2023-03-14T05:21:12;21.00;;;13.07;;
10031;SDS011;5056;44.272;19.892;2023-03-14T05:23:40;24.77;;;15.53;;
10031;SDS011;5056;44.272;19.892;2023-03-14T05:26:07;20.80;;;14.47;;
10031;SDS011;5056;44.272;19.892;2023-03-14T05:28:33;18.93;;;13.23;;
10031;SDS011;5056;44.272;19.892;2023-03-14T05:31:00;18.03;;;13.10;;
10031;SDS011;5056;44.272;19.892;2023-03-14T05:33:27;24.83;;;15.67;;
10031;SDS011;5056;44.272;19.892;2023-03-14T05:35:56;17.50;;;13.03;;
10031;SDS011;5056;44.272;19.892;2023-03-14T05:38:23;20.63;;;13.37;;
10031;SDS011;5056;44.272;19.892;2023-03-14T05:40:49;15.57;;;12.03;;
10031;SDS011;5056;44.272;19.892;2023-03-14T05:43:16;17.43;;;11.73;;
10031;SDS011;5056;44.272;19.892;2023-03-14T05:45:43;22.50;;;14.40;;
10031;SDS011;5056;44.272;19.892;2023-03-14T05:48:10;27.47;;;17.43;;
10031;SDS011;5056;44.272;19.892;2023-03-14T05:50:37;26.20;;;20.63;;
10031;SDS011;5056;44.272;19.892;2023-03-14T05:53:06;30.47;;;19.63;;
10031;SDS011;5056;44.272;19.892;2023-03-14T05:55:34;42.27;;;26.93;;
10031;SDS011;5056;44.272;19.892;2023-03-14T05:58:01;51.57;;;29.10;;
10031;SDS011;5056;44.272;19.892;2023-03-14T06:00:28;45.67;;;29.13;;
10031;SDS011;5056;44.272;19.892;2023-03-14T06:03:01;45.73;;;30.70;;
10031;SDS011;5056;44.272;19.892;2023-03-14T06:05:29;67.27;;;42.17;;
10031;SDS011;5056;44.272;19.892;2023-03-14T06:07:56;66.80;;;43.10;;
10031;SDS011;5056;44.272;19.892;2023-03-14T06:10:24;69.07;;;43.30;;
10031;SDS011;5056;44.272;19.892;2023-03-14T06:12:51;90.90;;;52.77;;
10031;SDS011;5056;44.272;19.892;2023-03-14T06:15:18;88.53;;;58.03;;
10031;SDS011;5056;44.272;19.892;2023-03-14T06:17:46;99.77;;;63.03;;
10031;SDS011;5056;44.272;19.892;2023-03-14T06:23:07;68.30;;;46.13;;
10031;SDS011;5056;44.272;19.892;2023-03-14T06:25:39;59.30;;;40.43;;
10031;SDS011;5056;44.272;19.892;2023-03-14T06:28:06;54.17;;;37.50;;
10031;SDS011;5056;44.272;19.892;2023-03-14T06:30:32;58.50;;;39.50;;
10031;SDS011;5056;44.272;19.892;2023-03-14T06:32:59;61.07;;;38.17;;
10031;SDS011;5056;44.272;19.892;2023-03-14T06:35:26;52.70;;;36.47;;
10031;SDS011;5056;44.272;19.892;2023-03-14T06:37:53;60.53;;;40.57;;
10031;SDS011;5056;44.272;19.892;2023-03-14T06:40:19;67.60;;;46.27;;
10031;SDS011;5056;44.272;19.892;2023-03-14T06:42:48;70.53;;;46.20;;
10031;SDS011;5056;44.272;19.892;2023-03-14T06:45:15;101.27;;;64.33;;
10031;SDS011;5056;44.272;19.892;2023-03-14T06:47:41;109.63;;;68.57;;
10031;SDS011;5056;44.272;19.892;2023-03-14T06:50:10;164.47;;;103.73;;
10031;SDS011;5056;44.272;19.892;2023-03-14T06:52:38;145.67;;;95.23;;
10031;SDS011;5056;44.272;19.892;2023-03-14T06:55:06;133.37;;;88.93;;
10031;SDS011;5056;44.272;19.892;2023-03-14T06:57:35;183.40;;;111.07;;
10031;SDS011;5056;44.272;19.892;2023-03-14T07:00:07;163.47;;;109.63;;
10031;SDS011;5056;44.272;19.892;2023-03-14T07:02:34;168.57;;;107.17;;
10031;SDS011;5056;44.272;19.892;2023-03-14T07:05:01;172.70;;;112.53;;
10031;SDS011;5056;44.272;19.892;2023-03-14T07:07:28;147.70;;;95.33;;
10031;SDS011;5056;44.272;19.892;2023-03-14T07:09:55;125.50;;;83.57;;
10031;SDS011;5056;44.272;19.892;2023-03-14T07:12:22;152.77;;;92.73;;
10031;SDS011;5056;44.272;19.892;2023-03-14T07:14:48;131.23;;;82.27;;
10031;SDS011;5056;44.272;19.892;2023-03-14T07:17:16;104.53;;;63.83;;
10031;SDS011;5056;44.272;19.892;2023-03-14T07:19:43;89.53;;;56.33;;
10031;SDS011;5056;44.272;19.892;2023-03-14T07:22:10;78.03;;;53.10;;
10031;SDS011;5056;44.272;19.892;2023-03-14T07:24:37;80.80;;;52.47;;
10031;SDS011;5056;44.272;19.892;2023-03-14T07:27:04;81.47;;;52.60;;
10031;SDS011;5056;44.272;19.892;2023-03-14T07:29:31;82.30;;;52.57;;
10031;SDS011;5056;44.272;19.892;2023-03-14T07:31:58;101.93;;;64.27;;
10031;SDS011;5056;44.272;19.892;2023-03-14T07:34:27;97.90;;;62.03;;
10031;SDS011;5056;44.272;19.892;2023-03-14T07:36:54;131.77;;;76.87;;
10031;SDS011;5056;44.272;19.892;2023-03-14T07:39:22;126.37;;;79.57;;
10031;SDS011;5056;44.272;19.892;2023-03-14T07:41:49;117.47;;;75.70;;
10031;SDS011;5056;44.272;19.892;2023-03-14T07:44:15;156.97;;;95.00;;
10031;SDS011;5056;44.272;19.892;2023-03-14T07:46:43;156.33;;;94.47;;
10031;SDS011;5056;44.272;19.892;2023-03-14T07:49:09;138.13;;;83.50;;
10031;SDS011;5056;44.272;19.892;2023-03-14T07:51:39;118.83;;;75.60;;
10031;SDS011;5056;44.272;19.892;2023-03-14T07:54:06;129.30;;;83.07;;
10031;SDS011;5056;44.272;19.892;2023-03-14T07:56:34;140.73;;;88.13;;
10031;SDS011;5056;44.272;19.892;2023-03-14T07:59:01;126.33;;;79.97;;
10031;SDS011;5056;44.272;19.892;2023-03-14T08:01:29;131.30;;;83.33;;
10031;SDS011;5056;44.272;19.892;2023-03-14T08:03:56;112.07;;;76.07;;
10031;SDS011;5056;44.272;19.892;2023-03-14T08:06:24;110.20;;;74.97;;
10031;SDS011;5056;44.272;19.892;2023-03-14T08:08:52;104.97;;;71.33;;
10031;SDS011;5056;44.272;19.892;2023-03-14T08:11:19;111.07;;;73.77;;
10031;SDS011;5056;44.272;19.892;2023-03-14T08:13:45;105.27;;;73.83;;
10031;SDS011;5056;44.272;19.892;2023-03-14T08:16:15;104.17;;;73.83;;
10031;SDS011;5056;44.272;19.892;2023-03-14T08:18:42;109.47;;;79.33;;
10031;SDS011;5056;44.272;19.892;2023-03-14T08:21:09;109.37;;;72.90;;
10031;SDS011;5056;44.272;19.892;2023-03-14T08:23:43;92.35;;;64.20;;
10031;SDS011;5056;44.272;19.892;2023-03-14T08:26:11;102.07;;;66.28;;
10031;SDS011;5056;44.272;19.892;2023-03-14T08:28:38;76.38;;;57.95;;
10031;SDS011;5056;44.272;19.892;2023-03-14T08:31:05;90.13;;;61.50;;
10031;SDS011;5056;44.272;19.892;2023-03-14T08:33:32;87.97;;;59.80;;
10031;SDS011;5056;44.272;19.892;2023-03-14T08:36:00;99.22;;;61.45;;
10031;SDS011;5056;44.272;19.892;2023-03-14T08:38:26;88.50;;;60.53;;
10031;SDS011;5056;44.272;19.892;2023-03-14T08:40:56;95.20;;;67.93;;
10031;SDS011;5056;44.272;19.892;2023-03-14T08:43:26;93.85;;;64.85;;
10031;SDS011;5056;44.272;19.892;2023-03-14T08:45:56;80.47;;;61.58;;
10031;SDS011;5056;44.272;19.892;2023-03-14T08:48:23;96.68;;;68.22;;
10031;SDS011;5056;44.272;19.892;2023-03-14T08:50:51;87.85;;;64.00;;
10031;SDS011;5056;44.272;19.892;2023-03-14T08:53:17;87.47;;;64.55;;
10031;SDS011;5056;44.272;19.892;2023-03-14T08:55:46;96.57;;;71.82;;
10031;SDS011;5056;44.272;19.892;2023-03-14T08:58:13;85.80;;;65.07;;
10031;SDS011;5056;44.272;19.892;2023-03-14T09:00:41;97.32;;;68.15;;
10031;SDS011;5056;44.272;19.892;2023-03-14T09:03:08;112.30;;;72.28;;
10031;SDS011;5056;44.272;19.892;2023-03-14T09:05:36;96.15;;;70.30;;
10031;SDS011;5056;44.272;19.892;2023-03-14T09:08:03;100.78;;;70.05;;
10031;SDS011;5056;44.272;19.892;2023-03-14T09:10:31;89.97;;;67.13;;
10031;SDS011;5056;44.272;19.892;2023-03-14T09:12:58;97.47;;;69.38;;
10031;SDS011;5056;44.272;19.892;2023-03-14T09:15:25;99.55;;;68.78;;
10031;SDS011;5056;44.272;19.892;2023-03-14T09:17:54;102.22;;;75.80;;
10031;SDS011;5056;44.272;19.892;2023-03-14T09:20:20;125.50;;;94.78;;
10031;SDS011;5056;44.272;19.892;2023-03-14T09:22:47;122.40;;;93.88;;
10031;SDS011;5056;44.272;19.892;2023-03-14T09:25:14;127.63;;;95.22;;
10031;SDS011;5056;44.272;19.892;2023-03-14T09:27:41;138.15;;;104.05;;
10031;SDS011;5056;44.272;19.892;2023-03-14T09:30:08;139.70;;;100.75;;
10031;SDS011;5056;44.272;19.892;2023-03-14T09:32:38;128.95;;;95.68;;
10031;SDS011;5056;44.272;19.892;2023-03-14T09:35:07;128.82;;;94.28;;
10031;SDS011;5056;44.272;19.892;2023-03-14T09:37:34;72.07;;;50.28;;
10031;SDS011;5056;44.272;19.892;2023-03-14T09:40:03;55.05;;;42.90;;
10031;SDS011;5056;44.272;19.892;2023-03-14T09:42:35;38.90;;;32.03;;
10031;SDS011;5056;44.272;19.892;2023-03-14T09:45:04;35.15;;;26.48;;
10031;SDS011;5056;44.272;19.892;2023-03-14T09:47:32;29.00;;;24.48;;
10031;SDS011;5056;44.272;19.892;2023-03-14T09:50:00;36.20;;;24.98;;
10031;SDS011;5056;44.272;19.892;2023-03-14T09:52:31;23.98;;;19.65;;
10031;SDS011;5056;44.272;19.892;2023-03-14T09:55:03;23.25;;;17.02;;
10031;SDS011;5056;44.272;19.892;2023-03-14T09:57:32;19.90;;;13.20;;
10031;SDS011;5056;44.272;19.892;2023-03-14T10:00:03;11.52;;;9.00;;
10031;SDS011;5056;44.272;19.892;2023-03-14T10:02:39;6.20;;;5.57;;
10031;SDS011;5056;44.272;19.892;2023-03-14T10:05:13;4.90;;;4.50;;
10031;SDS011;5056;44.272;19.892;2023-03-14T10:07:45;4.78;;;4.03;;
10031;SDS011;5056;44.272;19.892;2023-03-14T10:10:13;4.38;;;3.13;;
10031;SDS011;5056;44.272;19.892;2023-03-14T10:12:46;6.45;;;4.07;;
10031;SDS011;5056;44.272;19.892;2023-03-14T10:15:14;4.40;;;3.88;;
10031;SDS011;5056;44.272;19.892;2023-03-14T10:17:48;4.65;;;4.25;;
10031;SDS011;5056;44.272;19.892;2023-03-14T10:20:29;4.15;;;3.70;;
10031;SDS011;5056;44.272;19.892;2023-03-14T10:23:02;3.63;;;3.08;;
10031;SDS011;5056;44.272;19.892;2023-03-14T10:25:33;3.65;;;2.85;;
10031;SDS011;5056;44.272;19.892;2023-03-14T10:28:03;5.25;;;3.60;;
10031;SDS011;5056;44.272;19.892;2023-03-14T10:30:33;16.83;;;4.53;;
10031;SDS011;5056;44.272;19.892;2023-03-14T10:33:09;6.65;;;4.00;;
10031;SDS011;5056;44.272;19.892;2023-03-14T10:35:37;6.45;;;4.00;;
10031;SDS011;5056;44.272;19.892;2023-03-14T10:38:10;3.42;;;3.13;;
10031;SDS011;5056;44.272;19.892;2023-03-14T10:40:40;5.35;;;3.65;;
10031;SDS011;5056;44.272;19.892;2023-03-14T10:43:15;3.83;;;3.53;;
10031;SDS011;5056;44.272;19.892;2023-03-14T10:45:44;7.50;;;4.63;;
10031;SDS011;5056;44.272;19.892;2023-03-14T10:48:19;3.70;;;3.40;;
10031;SDS011;5056;44.272;19.892;2023-03-14T10:50:49;4.78;;;4.38;;
10031;SDS011;5056;44.272;19.892;2023-03-14T10:53:18;5.07;;;3.90;;
10031;SDS011;5056;44.272;19.892;2023-03-14T10:55:44;4.13;;;2.70;;
10031;SDS011;5056;44.272;19.892;2023-03-14T10:58:20;3.75;;;3.10;;
10031;SDS011;5056;44.272;19.892;2023-03-14T11:00:50;4.75;;;4.35;;
10031;SDS011;5056;44.272;19.892;2023-03-14T11:03:19;5.10;;;3.60;;
10031;SDS011;5056;44.272;19.892;2023-03-14T11:05:48;4.05;;;3.65;;
10031;SDS011;5056;44.272;19.892;2023-03-14T11:08:20;5.78;;;4.40;;
10031;SDS011;5056;44.272;19.892;2023-03-14T11:10:53;8.70;;;4.28;;
10031;SDS011;5056;44.272;19.892;2023-03-14T11:13:24;4.13;;;3.58;;
10031;SDS011;5056;44.272;19.892;2023-03-14T11:15:58;4.97;;;4.03;;
10031;SDS011;5056;44.272;19.892;2023-03-14T11:21:29;3.65;;;3.35;;
10031;SDS011;5056;44.272;19.892;2023-03-14T11:26:52;5.90;;;3.78;;
10031;SDS011;5056;44.272;19.892;2023-03-14T11:29:23;6.40;;;3.55;;
10031;SDS011;5056;44.272;19.892;2023-03-14T11:31:55;4.22;;;3.78;;
10031;SDS011;5056;44.272;19.892;2023-03-14T11:34:25;5.80;;;3.60;;
10031;SDS011;5056;44.272;19.892;2023-03-14T11:36:55;4.68;;;3.67;;
10031;SDS011;5056;44.272;19.892;2023-03-14T11:39:34;4.03;;;3.63;;
10031;SDS011;5056;44.272;19.892;2023-03-14T11:42:03;4.20;;;3.90;;
10031;SDS011;5056;44.272;19.892;2023-03-14T11:44:32;4.72;;;3.90;;
10031;SDS011;5056;44.272;19.892;2023-03-14T11:47:05;5.70;;;3.83;;
10031;SDS011;5056;44.272;19.892;2023-03-14T11:49:36;3.72;;;3.45;;
10031;SDS011;5056;44.272;19.892;2023-03-14T11:52:08;5.15;;;3.60;;
10031;SDS011;5056;44.272;19.892;2023-03-14T11:54:43;4.03;;;3.42;;
10031;SDS011;5056;44.272;19.892;2023-03-14T11:57:15;2.90;;;2.70;;
10031;SDS011;5056;44.272;19.892;2023-03-14T11:59:45;4.93;;;3.55;;
10031;SDS011;5056;44.272;19.892;2023-03-14T12:02:20;4.07;;;3.75;;
10031;SDS011;5056;44.272;19.892;2023-03-14T12:04:53;4.35;;;3.95;;
10031;SDS011;5056;44.272;19.892;2023-03-14T12:07:42;4.50;;;4.10;;
10031;SDS011;5056;44.272;19.892;2023-03-14T12:10:16;3.70;;;3.33;;
10031;SDS011;5056;44.272;19.892;2023-03-14T12:12:44;3.50;;;3.20;;
10031;SDS011;5056;44.272;19.892;2023-03-14T12:15:17;3.63;;;3.33;;
10031;SDS011;5056;44.272;19.892;2023-03-14T12:17:46;3.25;;;3.03;;
10031;SDS011;5056;44.272;19.892;2023-03-14T12:20:16;7.50;;;3.83;;
10031;SDS011;5056;44.272;19.892;2023-03-14T12:22:44;4.07;;;3.03;;
10031;SDS011;5056;44.272;19.892;2023-03-14T12:25:17;3.40;;;3.10;;
10031;SDS011;5056;44.272;19.892;2023-03-14T12:28:03;3.17;;;2.15;;
10031;SDS011;5056;44.272;19.892;2023-03-14T12:30:43;4.10;;;3.20;;
10031;SDS011;5056;44.272;19.892;2023-03-14T12:33:11;5.38;;;3.85;;
10031;SDS011;5056;44.272;19.892;2023-03-14T12:35:48;9.23;;;6.47;;
10031;SDS011;5056;44.272;19.892;2023-03-14T12:38:16;12.27;;;8.73;;
10031;SDS011;5056;44.272;19.892;2023-03-14T12:40:50;6.18;;;4.68;;
10031;SDS011;5056;44.272;19.892;2023-03-14T12:43:29;4.35;;;4.00;;
10031;SDS011;5056;44.272;19.892;2023-03-14T12:46:14;6.60;;;4.50;;
10031;SDS011;5056;44.272;19.892;2023-03-14T12:48:46;4.15;;;3.75;;
10031;SDS011;5056;44.272;19.892;2023-03-14T12:51:15;5.85;;;5.25;;
10031;SDS011;5056;44.272;19.892;2023-03-14T12:53:58;7.60;;;5.47;;
10031;SDS011;5056;44.272;19.892;2023-03-14T12:56:44;6.65;;;4.68;;
10031;SDS011;5056;44.272;19.892;2023-03-14T12:59:23;3.10;;;2.75;;
10031;SDS011;5056;44.272;19.892;2023-03-14T13:01:56;6.57;;;3.50;;
10031;SDS011;5056;44.272;19.892;2023-03-14T13:04:28;3.03;;;2.80;;
10031;SDS011;5056;44.272;19.892;2023-03-14T13:06:58;6.07;;;4.20;;
10031;SDS011;5056;44.272;19.892;2023-03-14T13:12:25;2.83;;;2.30;;
10031;SDS011;5056;44.272;19.892;2023-03-14T13:14:56;6.43;;;3.38;;
10031;SDS011;5056;44.272;19.892;2023-03-14T13:17:26;3.03;;;2.72;;
10031;SDS011;5056;44.272;19.892;2023-03-14T13:19:55;7.13;;;3.83;;
10031;SDS011;5056;44.272;19.892;2023-03-14T13:22:24;3.65;;;3.35;;
10031;SDS011;5056;44.272;19.892;2023-03-14T13:25:03;4.03;;;3.60;;
10031;SDS011;5056;44.272;19.892;2023-03-14T13:27:34;6.45;;;3.75;;
10031;SDS011;5056;44.272;19.892;2023-03-14T13:30:05;7.80;;;2.40;;
10031;SDS011;5056;44.272;19.892;2023-03-14T13:32:44;4.40;;;3.38;;
10031;SDS011;5056;44.272;19.892;2023-03-14T13:35:19;4.90;;;2.80;;
10031;SDS011;5056;44.272;19.892;2023-03-14T13:37:51;4.22;;;3.90;;
10031;SDS011;5056;44.272;19.892;2023-03-14T13:40:28;5.20;;;3.22;;
10031;SDS011;5056;44.272;19.892;2023-03-14T13:43:06;4.70;;;4.30;;
10031;SDS011;5056;44.272;19.892;2023-03-14T13:45:43;7.53;;;4.80;;
10031;SDS011;5056;44.272;19.892;2023-03-14T13:48:14;5.90;;;5.30;;
10031;SDS011;5056;44.272;19.892;2023-03-14T13:50:44;5.32;;;4.78;;
10031;SDS011;5056;44.272;19.892;2023-03-14T13:53:12;5.55;;;4.60;;
10031;SDS011;5056;44.272;19.892;2023-03-14T13:55:42;9.32;;;5.28;;
10031;SDS011;5056;44.272;19.892;2023-03-14T14:01:04;5.03;;;4.07;;
10031;SDS011;5056;44.272;19.892;2023-03-14T14:03:38;5.80;;;4.43;;
10031;SDS011;5056;44.272;19.892;2023-03-14T14:06:08;7.38;;;6.55;;
10031;SDS011;5056;44.272;19.892;2023-03-14T14:08:45;8.68;;;6.40;;
10031;SDS011;5056;44.272;19.892;2023-03-14T14:13:44;6.18;;;4.80;;
10031;SDS011;5056;44.272;19.892;2023-03-14T14:16:13;5.43;;;4.47;;
10031;SDS011;5056;44.272;19.892;2023-03-14T14:18:42;5.30;;;4.80;;
10031;SDS011;5056;44.272;19.892;2023-03-14T14:21:10;7.43;;;4.00;;
10031;SDS011;5056;44.272;19.892;2023-03-14T14:23:39;3.42;;;3.13;;
10031;SDS011;5056;44.272;19.892;2023-03-14T14:26:06;2.42;;;2.22;;
10031;SDS011;5056;44.272;19.892;2023-03-14T14:28:34;2.28;;;1.98;;
10031;SDS011;5056;44.272;19.892;2023-03-14T14:31:18;4.00;;;2.95;;
10031;SDS011;5056;44.272;19.892;2023-03-14T14:33:46;5.07;;;3.70;;
10031;SDS011;5056;44.272;19.892;2023-03-14T14:36:22;3.75;;;2.88;;
10031;SDS011;5056;44.272;19.892;2023-03-14T14:38:56;4.40;;;3.95;;
10031;SDS011;5056;44.272;19.892;2023-03-14T14:41:27;3.95;;;3.40;;
10031;SDS011;5056;44.272;19.892;2023-03-14T14:43:55;13.60;;;4.38;;
10031;SDS011;5056;44.272;19.892;2023-03-14T14:46:28;3.00;;;2.80;;
10031;SDS011;5056;44.272;19.892;2023-03-14T14:48:57;5.28;;;4.47;;
10031;SDS011;5056;44.272;19.892;2023-03-14T14:51:31;5.47;;;2.45;;
10031;SDS011;5056;44.272;19.892;2023-03-14T14:54:08;4.60;;;3.38;;
10031;SDS011;5056;44.272;19.892;2023-03-14T14:56:46;3.35;;;3.05;;
10031;SDS011;5056;44.272;19.892;2023-03-14T14:59:20;4.65;;;2.55;;
10031;SDS011;5056;44.272;19.892;2023-03-14T15:01:50;2.85;;;2.65;;